sensor_id;sensor_type;location;lat;lon;timestamp;P1;durP1;ratioP1;P2;durP2;ratioP2
3587;SDS011;1808;53.596;9.972;2023-06-19T00:01:24;7.38;;;6.15;;
3587;SDS011;1808;53.596;9.972;2023-06-19T00:03:50;8.32;;;6.03;;
3587;SDS011;1808;53.596;9.972;2023-06-19T00:06:17;8.20;;;6.40;;
3587;SDS011;1808;53.596;9.972;2023-06-19T00:08:44;9.00;;;6.75;;
3587;SDS011;1808;53.596;9.972;2023-06-19T00:11:11;7.63;;;6.57;;
3587;SDS011;1808;53.596;9.972;2023-06-19T00:13:37;9.15;;;7.25;;
3587;SDS011;1808;53.596;9.972;2023-06-19T00:16:04;9.18;;;6.18;;
3587;SDS011;1808;53.596;9.972;2023-06-19T00:18:31;10.63;;;6.60;;
3587;SDS011;1808;53.596;9.972;2023-06-19T00:21:04;9.13;;;6.55;;
3587;SDS011;1808;53.596;9.972;2023-06-19T00:23:30;7.30;;;6.28;;
3587;SDS011;1808;53.596;9.972;2023-06-19T00:25:58;9.98;;;6.78;;
3587;SDS011;1808;53.596;9.972;2023-06-19T00:28:26;9.77;;;6.47;;
3587;SDS011;1808;53.596;9.972;2023-06-19T00:30:52;9.55;;;6.80;;
3587;SDS011;1808;53.596;9.972;2023-06-19T00:33:18;8.57;;;7.13;;
3587;SDS011;1808;53.596;9.972;2023-06-19T00:35:45;10.35;;;6.78;;
3587;SDS011;1808;53.596;9.972;2023-06-19T00:38:11;7.68;;;6.30;;
3587;SDS011;1808;53.596;9.972;2023-06-19T00:40:37;7.90;;;6.68;;
3587;SDS011;1808;53.596;9.972;2023-06-19T00:43:05;8.65;;;6.78;;
3587;SDS011;1808;53.596;9.972;2023-06-19T00:45:31;9.25;;;7.05;;
3587;SDS011;1808;53.596;9.972;2023-06-19T00:47:59;7.57;;;6.57;;
3587;SDS011;1808;53.596;9.972;2023-06-19T00:50:26;9.30;;;6.93;;
3587;SDS011;1808;53.596;9.972;2023-06-19T00:52:54;9.82;;;7.47;;
3587;SDS011;1808;53.596;9.972;2023-06-19T00:55:21;9.52;;;7.18;;
3587;SDS011;1808;53.596;9.972;2023-06-19T00:57:48;8.90;;;6.80;;
3587;SDS011;1808;53.596;9.972;2023-06-19T01:00:16;10.43;;;7.55;;
3587;SDS011;1808;53.596;9.972;2023-06-19T01:02:43;10.23;;;7.28;;
3587;SDS011;1808;53.596;9.972;2023-06-19T01:05:09;9.18;;;6.90;;
3587;SDS011;1808;53.596;9.972;2023-06-19T01:07:39;9.23;;;7.32;;
3587;SDS011;1808;53.596;9.972;2023-06-19T01:10:10;9.35;;;7.47;;
3587;SDS011;1808;53.596;9.972;2023-06-19T01:12:42;11.65;;;7.20;;
3587;SDS011;1808;53.596;9.972;2023-06-19T01:15:20;9.88;;;7.90;;
3587;SDS011;1808;53.596;9.972;2023-06-19T01:17:48;9.88;;;7.68;;
3587;SDS011;1808;53.596;9.972;2023-06-19T01:20:15;12.82;;;7.70;;
3587;SDS011;1808;53.596;9.972;2023-06-19T01:22:43;8.45;;;6.95;;
3587;SDS011;1808;53.596;9.972;2023-06-19T01:25:10;8.75;;;7.45;;
3587;SDS011;1808;53.596;9.972;2023-06-19T01:27:38;9.25;;;7.65;;
3587;SDS011;1808;53.596;9.972;2023-06-19T01:30:06;13.18;;;7.85;;
3587;SDS011;1808;53.596;9.972;2023-06-19T01:32:34;9.52;;;7.35;;
3587;SDS011;1808;53.596;9.972;2023-06-19T01:35:06;9.23;;;7.43;;
3587;SDS011;1808;53.596;9.972;2023-06-19T01:37:34;10.25;;;8.02;;
3587;SDS011;1808;53.596;9.972;2023-06-19T01:40:03;10.77;;;8.13;;
3587;SDS011;1808;53.596;9.972;2023-06-19T01:42:32;9.13;;;7.65;;
3587;SDS011;1808;53.596;9.972;2023-06-19T01:44:58;9.93;;;7.28;;
3587;SDS011;1808;53.596;9.972;2023-06-19T01:47:28;11.73;;;7.80;;
3587;SDS011;1808;53.596;9.972;2023-06-19T01:49:54;9.88;;;8.10;;
3587;SDS011;1808;53.596;9.972;2023-06-19T01:52:20;9.25;;;7.78;;
3587;SDS011;1808;53.596;9.972;2023-06-19T01:54:48;9.00;;;7.90;;
3587;SDS011;1808;53.596;9.972;2023-06-19T01:57:16;10.52;;;8.15;;
3587;SDS011;1808;53.596;9.972;2023-06-19T01:59:43;9.02;;;7.63;;
3587;SDS011;1808;53.596;9.972;2023-06-19T02:02:09;11.05;;;8.68;;
3587;SDS011;1808;53.596;9.972;2023-06-19T02:04:36;10.93;;;7.88;;
3587;SDS011;1808;53.596;9.972;2023-06-19T02:07:02;11.80;;;8.38;;
3587;SDS011;1808;53.596;9.972;2023-06-19T02:09:28;23.85;;;9.25;;
3587;SDS011;1808;53.596;9.972;2023-06-19T02:11:55;9.93;;;8.13;;
3587;SDS011;1808;53.596;9.972;2023-06-19T02:14:23;10.18;;;8.63;;
3587;SDS011;1808;53.596;9.972;2023-06-19T02:16:49;11.98;;;8.75;;
3587;SDS011;1808;53.596;9.972;2023-06-19T02:19:15;11.98;;;7.90;;
3587;SDS011;1808;53.596;9.972;2023-06-19T02:21:42;11.15;;;8.52;;
3587;SDS011;1808;53.596;9.972;2023-06-19T02:24:08;9.40;;;8.40;;
3587;SDS011;1808;53.596;9.972;2023-06-19T02:26:34;10.43;;;8.55;;
3587;SDS011;1808;53.596;9.972;2023-06-19T02:29:01;10.57;;;8.32;;
3587;SDS011;1808;53.596;9.972;2023-06-19T02:31:29;11.15;;;8.52;;
3587;SDS011;1808;53.596;9.972;2023-06-19T02:33:55;9.50;;;8.50;;
3587;SDS011;1808;53.596;9.972;2023-06-19T02:36:21;11.23;;;8.93;;
3587;SDS011;1808;53.596;9.972;2023-06-19T02:38:48;10.73;;;8.68;;
3587;SDS011;1808;53.596;9.972;2023-06-19T02:41:14;10.38;;;8.68;;
3587;SDS011;1808;53.596;9.972;2023-06-19T02:43:42;12.32;;;9.38;;
3587;SDS011;1808;53.596;9.972;2023-06-19T02:46:08;10.70;;;9.13;;
3587;SDS011;1808;53.596;9.972;2023-06-19T02:48:36;11.65;;;9.52;;
3587;SDS011;1808;53.596;9.972;2023-06-19T02:51:02;14.35;;;9.27;;
3587;SDS011;1808;53.596;9.972;2023-06-19T02:53:29;12.45;;;10.38;;
3587;SDS011;1808;53.596;9.972;2023-06-19T02:55:55;11.30;;;8.82;;
3587;SDS011;1808;53.596;9.972;2023-06-19T02:58:21;12.73;;;9.50;;
3587;SDS011;1808;53.596;9.972;2023-06-19T03:00:48;10.88;;;9.27;;
3587;SDS011;1808;53.596;9.972;2023-06-19T03:03:14;11.77;;;9.50;;
3587;SDS011;1808;53.596;9.972;2023-06-19T03:05:42;11.13;;;9.40;;
3587;SDS011;1808;53.596;9.972;2023-06-19T03:08:08;12.10;;;9.30;;
3587;SDS011;1808;53.596;9.972;2023-06-19T03:10:35;11.23;;;9.65;;
3587;SDS011;1808;53.596;9.972;2023-06-19T03:13:01;11.05;;;8.63;;
3587;SDS011;1808;53.596;9.972;2023-06-19T03:15:28;14.10;;;8.90;;
3587;SDS011;1808;53.596;9.972;2023-06-19T03:17:54;11.60;;;9.23;;
3587;SDS011;1808;53.596;9.972;2023-06-19T03:20:21;11.07;;;9.07;;
3587;SDS011;1808;53.596;9.972;2023-06-19T03:22:49;12.25;;;9.57;;
3587;SDS011;1808;53.596;9.972;2023-06-19T03:25:16;10.85;;;9.15;;
3587;SDS011;1808;53.596;9.972;2023-06-19T03:27:44;11.52;;;9.30;;
3587;SDS011;1808;53.596;9.972;2023-06-19T03:30:11;11.88;;;9.48;;
3587;SDS011;1808;53.596;9.972;2023-06-19T03:32:37;11.68;;;8.90;;
3587;SDS011;1808;53.596;9.972;2023-06-19T03:35:04;15.65;;;9.60;;
3587;SDS011;1808;53.596;9.972;2023-06-19T03:37:31;11.48;;;9.88;;
3587;SDS011;1808;53.596;9.972;2023-06-19T03:39:59;13.13;;;9.75;;
3587;SDS011;1808;53.596;9.972;2023-06-19T03:42:26;14.45;;;10.18;;
3587;SDS011;1808;53.596;9.972;2023-06-19T03:44:52;15.70;;;9.73;;
3587;SDS011;1808;53.596;9.972;2023-06-19T03:47:18;12.05;;;10.23;;
3587;SDS011;1808;53.596;9.972;2023-06-19T03:49:45;18.27;;;11.18;;
3587;SDS011;1808;53.596;9.972;2023-06-19T03:52:11;12.13;;;10.18;;
3587;SDS011;1808;53.596;9.972;2023-06-19T03:54:37;12.05;;;10.15;;
3587;SDS011;1808;53.596;9.972;2023-06-19T03:57:05;13.68;;;10.02;;
3587;SDS011;1808;53.596;9.972;2023-06-19T03:59:33;18.02;;;9.98;;
3587;SDS011;1808;53.596;9.972;2023-06-19T04:01:59;13.65;;;10.50;;
3587;SDS011;1808;53.596;9.972;2023-06-19T04:04:26;12.80;;;10.32;;
3587;SDS011;1808;53.596;9.972;2023-06-19T04:06:52;13.32;;;10.13;;
3587;SDS011;1808;53.596;9.972;2023-06-19T04:09:18;15.13;;;10.50;;
3587;SDS011;1808;53.596;9.972;2023-06-19T04:11:45;12.55;;;10.48;;
3587;SDS011;1808;53.596;9.972;2023-06-19T04:14:13;17.40;;;10.60;;
3587;SDS011;1808;53.596;9.972;2023-06-19T04:16:39;12.50;;;10.20;;
3587;SDS011;1808;53.596;9.972;2023-06-19T04:19:05;11.73;;;10.43;;
3587;SDS011;1808;53.596;9.972;2023-06-19T04:21:31;12.88;;;10.05;;
3587;SDS011;1808;53.596;9.972;2023-06-19T04:23:58;13.68;;;10.07;;
3587;SDS011;1808;53.596;9.972;2023-06-19T04:26:24;11.90;;;10.10;;
3587;SDS011;1808;53.596;9.972;2023-06-19T04:28:50;12.20;;;9.90;;
3587;SDS011;1808;53.596;9.972;2023-06-19T04:31:18;14.07;;;11.90;;
3587;SDS011;1808;53.596;9.972;2023-06-19T04:33:44;13.15;;;10.55;;
3587;SDS011;1808;53.596;9.972;2023-06-19T04:36:11;14.65;;;11.13;;
3587;SDS011;1808;53.596;9.972;2023-06-19T04:38:37;15.00;;;9.88;;
3587;SDS011;1808;53.596;9.972;2023-06-19T04:41:03;14.65;;;11.15;;
3587;SDS011;1808;53.596;9.972;2023-06-19T04:43:30;11.98;;;10.65;;
3587;SDS011;1808;53.596;9.972;2023-06-19T04:45:57;14.30;;;11.82;;
3587;SDS011;1808;53.596;9.972;2023-06-19T04:48:25;12.80;;;10.90;;
3587;SDS011;1808;53.596;9.972;2023-06-19T04:50:51;12.68;;;10.93;;
3587;SDS011;1808;53.596;9.972;2023-06-19T04:53:19;14.00;;;10.77;;
3587;SDS011;1808;53.596;9.972;2023-06-19T04:55:45;14.63;;;10.90;;
3587;SDS011;1808;53.596;9.972;2023-06-19T04:58:12;13.77;;;11.13;;
3587;SDS011;1808;53.596;9.972;2023-06-19T05:00:38;12.73;;;10.73;;
3587;SDS011;1808;53.596;9.972;2023-06-19T05:03:04;14.82;;;11.07;;
3587;SDS011;1808;53.596;9.972;2023-06-19T05:05:32;14.55;;;11.05;;
3587;SDS011;1808;53.596;9.972;2023-06-19T05:07:59;16.08;;;11.23;;
3587;SDS011;1808;53.596;9.972;2023-06-19T05:10:26;14.60;;;11.13;;
3587;SDS011;1808;53.596;9.972;2023-06-19T05:12:52;15.02;;;11.85;;
3587;SDS011;1808;53.596;9.972;2023-06-19T05:15:18;15.00;;;11.38;;
3587;SDS011;1808;53.596;9.972;2023-06-19T05:17:45;16.40;;;13.00;;
3587;SDS011;1808;53.596;9.972;2023-06-19T05:20:11;15.77;;;11.75;;
3587;SDS011;1808;53.596;9.972;2023-06-19T05:22:40;15.60;;;10.77;;
3587;SDS011;1808;53.596;9.972;2023-06-19T05:25:06;15.00;;;11.45;;
3587;SDS011;1808;53.596;9.972;2023-06-19T05:27:33;13.13;;;11.13;;
3587;SDS011;1808;53.596;9.972;2023-06-19T05:29:59;15.32;;;12.23;;
3587;SDS011;1808;53.596;9.972;2023-06-19T05:32:26;14.43;;;10.85;;
3587;SDS011;1808;53.596;9.972;2023-06-19T05:34:52;13.65;;;11.45;;
3587;SDS011;1808;53.596;9.972;2023-06-19T05:37:19;18.25;;;11.55;;
3587;SDS011;1808;53.596;9.972;2023-06-19T05:39:48;15.93;;;12.80;;
3587;SDS011;1808;53.596;9.972;2023-06-19T05:42:14;16.75;;;11.82;;
3587;SDS011;1808;53.596;9.972;2023-06-19T05:44:40;16.77;;;12.25;;
3587;SDS011;1808;53.596;9.972;2023-06-19T05:47:07;16.52;;;12.63;;
3587;SDS011;1808;53.596;9.972;2023-06-19T05:49:33;14.70;;;11.70;;
3587;SDS011;1808;53.596;9.972;2023-06-19T05:51:59;15.13;;;11.57;;
3587;SDS011;1808;53.596;9.972;2023-06-19T05:54:26;17.33;;;11.40;;
3587;SDS011;1808;53.596;9.972;2023-06-19T05:56:53;14.73;;;11.23;;
3587;SDS011;1808;53.596;9.972;2023-06-19T05:59:20;13.27;;;10.75;;
3587;SDS011;1808;53.596;9.972;2023-06-19T06:01:46;15.35;;;11.85;;
3587;SDS011;1808;53.596;9.972;2023-06-19T06:04:13;14.95;;;10.73;;
3587;SDS011;1808;53.596;9.972;2023-06-19T06:06:39;14.85;;;11.93;;
3587;SDS011;1808;53.596;9.972;2023-06-19T06:09:06;15.00;;;10.90;;
3587;SDS011;1808;53.596;9.972;2023-06-19T06:11:35;17.85;;;11.05;;
3587;SDS011;1808;53.596;9.972;2023-06-19T06:14:03;17.02;;;11.75;;
3587;SDS011;1808;53.596;9.972;2023-06-19T06:16:30;17.92;;;12.05;;
3587;SDS011;1808;53.596;9.972;2023-06-19T06:18:56;17.65;;;11.82;;
3587;SDS011;1808;53.596;9.972;2023-06-19T06:21:23;18.02;;;11.77;;
3587;SDS011;1808;53.596;9.972;2023-06-19T06:23:49;16.27;;;12.50;;
3587;SDS011;1808;53.596;9.972;2023-06-19T06:26:16;20.85;;;13.98;;
3587;SDS011;1808;53.596;9.972;2023-06-19T06:28:43;21.92;;;13.70;;
3587;SDS011;1808;53.596;9.972;2023-06-19T06:31:11;19.08;;;13.98;;
3587;SDS011;1808;53.596;9.972;2023-06-19T06:33:37;22.02;;;14.57;;
3587;SDS011;1808;53.596;9.972;2023-06-19T06:36:04;24.23;;;13.85;;
3587;SDS011;1808;53.596;9.972;2023-06-19T06:38:30;19.13;;;14.15;;
3587;SDS011;1808;53.596;9.972;2023-06-19T06:40:56;20.40;;;14.23;;
3587;SDS011;1808;53.596;9.972;2023-06-19T06:43:23;20.17;;;14.05;;
3587;SDS011;1808;53.596;9.972;2023-06-19T06:45:49;18.25;;;14.18;;
3587;SDS011;1808;53.596;9.972;2023-06-19T06:48:17;19.85;;;14.18;;
3587;SDS011;1808;53.596;9.972;2023-06-19T06:50:43;21.17;;;15.05;;
3587;SDS011;1808;53.596;9.972;2023-06-19T06:53:09;20.33;;;14.75;;
3587;SDS011;1808;53.596;9.972;2023-06-19T06:55:36;21.45;;;14.82;;
3587;SDS011;1808;53.596;9.972;2023-06-19T06:58:02;24.48;;;15.10;;
3587;SDS011;1808;53.596;9.972;2023-06-19T07:00:30;20.02;;;14.73;;
3587;SDS011;1808;53.596;9.972;2023-06-19T07:02:56;20.63;;;14.27;;
3587;SDS011;1808;53.596;9.972;2023-06-19T07:05:24;23.27;;;15.38;;
3587;SDS011;1808;53.596;9.972;2023-06-19T07:07:50;18.92;;;14.45;;
3587;SDS011;1808;53.596;9.972;2023-06-19T07:10:16;24.50;;;15.77;;
3587;SDS011;1808;53.596;9.972;2023-06-19T07:12:46;21.35;;;15.13;;
3587;SDS011;1808;53.596;9.972;2023-06-19T07:15:13;19.38;;;15.45;;
3587;SDS011;1808;53.596;9.972;2023-06-19T07:17:39;24.75;;;17.33;;
3587;SDS011;1808;53.596;9.972;2023-06-19T07:20:06;25.60;;;16.52;;
3587;SDS011;1808;53.596;9.972;2023-06-19T07:22:34;21.67;;;16.52;;
3587;SDS011;1808;53.596;9.972;2023-06-19T07:25:01;21.80;;;16.77;;
3587;SDS011;1808;53.596;9.972;2023-06-19T07:27:28;25.52;;;15.63;;
3587;SDS011;1808;53.596;9.972;2023-06-19T07:29:55;23.35;;;16.25;;
3587;SDS011;1808;53.596;9.972;2023-06-19T07:32:21;21.63;;;14.63;;
3587;SDS011;1808;53.596;9.972;2023-06-19T07:34:47;23.65;;;15.82;;
3587;SDS011;1808;53.596;9.972;2023-06-19T07:37:14;33.67;;;22.17;;
3587;SDS011;1808;53.596;9.972;2023-06-19T07:39:44;20.13;;;16.15;;
3587;SDS011;1808;53.596;9.972;2023-06-19T07:42:10;23.20;;;15.52;;
3587;SDS011;1808;53.596;9.972;2023-06-19T07:44:36;23.15;;;15.52;;
3587;SDS011;1808;53.596;9.972;2023-06-19T07:47:03;22.65;;;16.05;;
3587;SDS011;1808;53.596;9.972;2023-06-19T07:49:29;22.45;;;15.65;;
3587;SDS011;1808;53.596;9.972;2023-06-19T07:51:55;19.92;;;15.10;;
3587;SDS011;1808;53.596;9.972;2023-06-19T07:54:22;23.00;;;16.65;;
3587;SDS011;1808;53.596;9.972;2023-06-19T07:56:49;21.77;;;15.55;;
3587;SDS011;1808;53.596;9.972;2023-06-19T07:59:16;24.38;;;17.10;;
3587;SDS011;1808;53.596;9.972;2023-06-19T08:01:42;20.55;;;16.30;;
3587;SDS011;1808;53.596;9.972;2023-06-19T08:04:09;21.88;;;15.43;;
3587;SDS011;1808;53.596;9.972;2023-06-19T08:06:36;21.33;;;15.85;;
3587;SDS011;1808;53.596;9.972;2023-06-19T08:09:02;20.40;;;15.73;;
3587;SDS011;1808;53.596;9.972;2023-06-19T08:11:29;23.55;;;16.92;;
3587;SDS011;1808;53.596;9.972;2023-06-19T08:13:56;37.88;;;22.63;;
3587;SDS011;1808;53.596;9.972;2023-06-19T08:16:24;26.20;;;19.05;;
3587;SDS011;1808;53.596;9.972;2023-06-19T08:18:50;30.02;;;17.92;;
3587;SDS011;1808;53.596;9.972;2023-06-19T08:21:16;46.88;;;17.83;;
3587;SDS011;1808;53.596;9.972;2023-06-19T08:23:43;20.33;;;16.67;;
3587;SDS011;1808;53.596;9.972;2023-06-19T08:26:09;21.35;;;16.75;;
3587;SDS011;1808;53.596;9.972;2023-06-19T08:28:36;20.77;;;16.88;;
3587;SDS011;1808;53.596;9.972;2023-06-19T08:31:04;23.45;;;17.98;;
3587;SDS011;1808;53.596;9.972;2023-06-19T08:33:31;21.13;;;16.95;;
3587;SDS011;1808;53.596;9.972;2023-06-19T08:35:57;23.75;;;17.33;;
3587;SDS011;1808;53.596;9.972;2023-06-19T08:38:23;20.83;;;16.70;;
3587;SDS011;1808;53.596;9.972;2023-06-19T08:40:50;21.63;;;16.65;;
3587;SDS011;1808;53.596;9.972;2023-06-19T08:43:16;23.52;;;16.33;;
3587;SDS011;1808;53.596;9.972;2023-06-19T08:45:42;21.60;;;16.88;;
3587;SDS011;1808;53.596;9.972;2023-06-19T08:48:13;27.90;;;17.55;;
3587;SDS011;1808;53.596;9.972;2023-06-19T08:50:39;23.15;;;17.42;;
3587;SDS011;1808;53.596;9.972;2023-06-19T08:53:06;22.90;;;18.27;;
3587;SDS011;1808;53.596;9.972;2023-06-19T08:55:32;25.38;;;18.05;;
3587;SDS011;1808;53.596;9.972;2023-06-19T08:57:59;23.50;;;17.48;;
3587;SDS011;1808;53.596;9.972;2023-06-19T09:00:26;27.13;;;16.92;;
3587;SDS011;1808;53.596;9.972;2023-06-19T09:02:59;22.38;;;15.95;;
3587;SDS011;1808;53.596;9.972;2023-06-19T09:05:27;25.60;;;17.08;;
3587;SDS011;1808;53.596;9.972;2023-06-19T09:07:54;28.85;;;19.05;;
3587;SDS011;1808;53.596;9.972;2023-06-19T09:10:22;22.90;;;17.20;;
3587;SDS011;1808;53.596;9.972;2023-06-19T09:12:58;23.33;;;17.25;;
3587;SDS011;1808;53.596;9.972;2023-06-19T09:15:27;24.65;;;18.50;;
3587;SDS011;1808;53.596;9.972;2023-06-19T09:18:04;24.77;;;18.45;;
3587;SDS011;1808;53.596;9.972;2023-06-19T09:20:32;24.70;;;17.70;;
3587;SDS011;1808;53.596;9.972;2023-06-19T09:22:59;25.60;;;18.67;;
3587;SDS011;1808;53.596;9.972;2023-06-19T09:25:26;22.90;;;17.73;;
3587;SDS011;1808;53.596;9.972;2023-06-19T09:27:53;23.48;;;18.50;;
3587;SDS011;1808;53.596;9.972;2023-06-19T09:30:19;32.17;;;19.55;;
3587;SDS011;1808;53.596;9.972;2023-06-19T09:32:46;25.08;;;18.73;;
3587;SDS011;1808;53.596;9.972;2023-06-19T09:35:12;27.02;;;18.33;;
3587;SDS011;1808;53.596;9.972;2023-06-19T09:37:40;23.90;;;17.35;;
3587;SDS011;1808;53.596;9.972;2023-06-19T09:40:07;25.27;;;18.33;;
3587;SDS011;1808;53.596;9.972;2023-06-19T09:42:35;21.92;;;17.98;;
3587;SDS011;1808;53.596;9.972;2023-06-19T09:45:04;26.80;;;19.50;;
3587;SDS011;1808;53.596;9.972;2023-06-19T09:47:32;26.60;;;18.73;;
3587;SDS011;1808;53.596;9.972;2023-06-19T09:50:02;25.05;;;19.35;;
3587;SDS011;1808;53.596;9.972;2023-06-19T09:52:29;27.92;;;20.23;;
3587;SDS011;1808;53.596;9.972;2023-06-19T09:54:57;29.10;;;20.83;;
3587;SDS011;1808;53.596;9.972;2023-06-19T09:57:24;29.50;;;20.45;;
3587;SDS011;1808;53.596;9.972;2023-06-19T09:59:52;28.60;;;20.73;;
3587;SDS011;1808;53.596;9.972;2023-06-19T10:02:21;28.23;;;21.08;;
3587;SDS011;1808;53.596;9.972;2023-06-19T10:04:49;34.92;;;21.25;;
3587;SDS011;1808;53.596;9.972;2023-06-19T10:07:16;27.60;;;20.33;;
3587;SDS011;1808;53.596;9.972;2023-06-19T10:09:54;29.85;;;21.95;;
3587;SDS011;1808;53.596;9.972;2023-06-19T10:12:33;29.05;;;20.98;;
3587;SDS011;1808;53.596;9.972;2023-06-19T10:15:09;27.15;;;20.40;;
3587;SDS011;1808;53.596;9.972;2023-06-19T10:17:44;31.70;;;21.45;;
3587;SDS011;1808;53.596;9.972;2023-06-19T10:20:19;30.13;;;21.27;;
3587;SDS011;1808;53.596;9.972;2023-06-19T10:23:03;31.02;;;21.67;;
3587;SDS011;1808;53.596;9.972;2023-06-19T10:25:30;31.75;;;21.15;;
3587;SDS011;1808;53.596;9.972;2023-06-19T10:27:59;29.15;;;21.05;;
3587;SDS011;1808;53.596;9.972;2023-06-19T10:30:26;26.95;;;20.73;;
3587;SDS011;1808;53.596;9.972;2023-06-19T10:32:53;27.88;;;21.40;;
3587;SDS011;1808;53.596;9.972;2023-06-19T10:35:19;27.33;;;20.40;;
3587;SDS011;1808;53.596;9.972;2023-06-19T10:37:49;33.38;;;21.35;;
3587;SDS011;1808;53.596;9.972;2023-06-19T10:40:15;27.45;;;20.92;;
3587;SDS011;1808;53.596;9.972;2023-06-19T10:42:42;30.83;;;21.92;;
3587;SDS011;1808;53.596;9.972;2023-06-19T10:45:11;27.08;;;19.58;;
3587;SDS011;1808;53.596;9.972;2023-06-19T10:47:40;32.47;;;20.38;;
3587;SDS011;1808;53.596;9.972;2023-06-19T10:50:11;29.05;;;20.52;;
3587;SDS011;1808;53.596;9.972;2023-06-19T10:52:42;29.23;;;19.50;;
3587;SDS011;1808;53.596;9.972;2023-06-19T10:55:09;26.73;;;18.77;;
3587;SDS011;1808;53.596;9.972;2023-06-19T10:57:37;28.65;;;19.30;;
3587;SDS011;1808;53.596;9.972;2023-06-19T11:00:04;28.48;;;20.38;;
3587;SDS011;1808;53.596;9.972;2023-06-19T11:02:38;31.30;;;23.77;;
3587;SDS011;1808;53.596;9.972;2023-06-19T11:05:08;32.28;;;21.80;;
3587;SDS011;1808;53.596;9.972;2023-06-19T11:07:34;33.63;;;20.73;;
3587;SDS011;1808;53.596;9.972;2023-06-19T11:10:01;29.50;;;20.77;;
3587;SDS011;1808;53.596;9.972;2023-06-19T11:12:28;28.48;;;22.10;;
3587;SDS011;1808;53.596;9.972;2023-06-19T11:14:55;26.55;;;19.00;;
3587;SDS011;1808;53.596;9.972;2023-06-19T11:17:21;28.10;;;17.85;;
3587;SDS011;1808;53.596;9.972;2023-06-19T11:19:50;31.85;;;20.25;;
3587;SDS011;1808;53.596;9.972;2023-06-19T11:22:17;23.70;;;17.95;;
3587;SDS011;1808;53.596;9.972;2023-06-19T11:24:43;28.42;;;19.77;;
3587;SDS011;1808;53.596;9.972;2023-06-19T11:27:16;26.15;;;16.45;;
3587;SDS011;1808;53.596;9.972;2023-06-19T11:29:43;26.73;;;15.88;;
3587;SDS011;1808;53.596;9.972;2023-06-19T11:32:12;26.15;;;16.20;;
3587;SDS011;1808;53.596;9.972;2023-06-19T11:34:39;26.40;;;15.32;;
3587;SDS011;1808;53.596;9.972;2023-06-19T11:37:12;22.42;;;16.30;;
3587;SDS011;1808;53.596;9.972;2023-06-19T11:39:39;24.83;;;14.27;;
3587;SDS011;1808;53.596;9.972;2023-06-19T11:42:06;21.65;;;14.45;;
3587;SDS011;1808;53.596;9.972;2023-06-19T11:44:33;18.65;;;11.43;;
3587;SDS011;1808;53.596;9.972;2023-06-19T11:46:59;22.40;;;15.35;;
3587;SDS011;1808;53.596;9.972;2023-06-19T11:49:27;22.02;;;14.50;;
3587;SDS011;1808;53.596;9.972;2023-06-19T11:51:57;19.95;;;11.95;;
3587;SDS011;1808;53.596;9.972;2023-06-19T11:54:25;19.67;;;12.18;;
3587;SDS011;1808;53.596;9.972;2023-06-19T11:56:51;19.90;;;12.85;;
3587;SDS011;1808;53.596;9.972;2023-06-19T11:59:18;21.75;;;13.00;;
3587;SDS011;1808;53.596;9.972;2023-06-19T12:01:44;21.40;;;12.43;;
3587;SDS011;1808;53.596;9.972;2023-06-19T12:04:10;19.42;;;11.38;;
3587;SDS011;1808;53.596;9.972;2023-06-19T12:06:37;21.73;;;13.65;;
3587;SDS011;1808;53.596;9.972;2023-06-19T12:09:03;17.67;;;12.90;;
3587;SDS011;1808;53.596;9.972;2023-06-19T12:11:32;20.05;;;14.20;;
3587;SDS011;1808;53.596;9.972;2023-06-19T12:13:58;22.02;;;13.75;;
3587;SDS011;1808;53.596;9.972;2023-06-19T12:16:25;20.00;;;13.02;;
3587;SDS011;1808;53.596;9.972;2023-06-19T12:18:53;18.80;;;13.15;;
3587;SDS011;1808;53.596;9.972;2023-06-19T12:21:19;15.00;;;10.50;;
3587;SDS011;1808;53.596;9.972;2023-06-19T12:23:46;19.00;;;13.32;;
3587;SDS011;1808;53.596;9.972;2023-06-19T12:26:12;18.83;;;12.60;;
3587;SDS011;1808;53.596;9.972;2023-06-19T12:28:40;18.90;;;12.77;;
3587;SDS011;1808;53.596;9.972;2023-06-19T12:31:07;19.02;;;13.23;;
3587;SDS011;1808;53.596;9.972;2023-06-19T12:33:34;22.02;;;12.02;;
3587;SDS011;1808;53.596;9.972;2023-06-19T12:36:04;25.38;;;11.23;;
3587;SDS011;1808;53.596;9.972;2023-06-19T12:38:31;18.90;;;12.63;;
3587;SDS011;1808;53.596;9.972;2023-06-19T12:40:57;19.80;;;12.70;;
3587;SDS011;1808;53.596;9.972;2023-06-19T12:43:24;18.13;;;12.73;;
3587;SDS011;1808;53.596;9.972;2023-06-19T12:45:54;24.90;;;12.15;;
3587;SDS011;1808;53.596;9.972;2023-06-19T12:48:20;23.88;;;11.70;;
3587;SDS011;1808;53.596;9.972;2023-06-19T12:50:47;19.10;;;12.27;;
3587;SDS011;1808;53.596;9.972;2023-06-19T12:53:13;16.98;;;10.85;;
3587;SDS011;1808;53.596;9.972;2023-06-19T12:55:40;17.98;;;11.90;;
3587;SDS011;1808;53.596;9.972;2023-06-19T12:58:06;18.95;;;11.10;;
3587;SDS011;1808;53.596;9.972;2023-06-19T13:00:33;24.17;;;12.98;;
3587;SDS011;1808;53.596;9.972;2023-06-19T13:03:01;19.33;;;12.43;;
3587;SDS011;1808;53.596;9.972;2023-06-19T13:05:32;15.75;;;12.88;;
3587;SDS011;1808;53.596;9.972;2023-06-19T13:07:59;14.53;;;10.77;;
3587;SDS011;1808;53.596;9.972;2023-06-19T13:10:25;15.27;;;11.10;;
3587;SDS011;1808;53.596;9.972;2023-06-19T13:12:52;17.05;;;11.45;;
3587;SDS011;1808;53.596;9.972;2023-06-19T13:15:18;19.30;;;12.13;;
3587;SDS011;1808;53.596;9.972;2023-06-19T13:17:45;12.85;;;10.32;;
3587;SDS011;1808;53.596;9.972;2023-06-19T13:20:13;16.70;;;8.60;;
3587;SDS011;1808;53.596;9.972;2023-06-19T13:22:40;16.33;;;9.60;;
3587;SDS011;1808;53.596;9.972;2023-06-19T13:25:07;11.02;;;8.93;;
3587;SDS011;1808;53.596;9.972;2023-06-19T13:27:34;16.27;;;9.05;;
3587;SDS011;1808;53.596;9.972;2023-06-19T13:30:01;15.57;;;9.15;;
3587;SDS011;1808;53.596;9.972;2023-06-19T13:32:28;18.50;;;10.07;;
3587;SDS011;1808;53.596;9.972;2023-06-19T13:34:54;13.23;;;9.27;;
3587;SDS011;1808;53.596;9.972;2023-06-19T13:37:22;14.70;;;8.77;;
3587;SDS011;1808;53.596;9.972;2023-06-19T13:39:49;21.55;;;11.18;;
3587;SDS011;1808;53.596;9.972;2023-06-19T13:42:17;17.15;;;11.35;;
3587;SDS011;1808;53.596;9.972;2023-06-19T13:44:43;17.33;;;11.65;;
3587;SDS011;1808;53.596;9.972;2023-06-19T13:47:10;12.38;;;9.40;;
3587;SDS011;1808;53.596;9.972;2023-06-19T13:49:38;11.98;;;8.25;;
3587;SDS011;1808;53.596;9.972;2023-06-19T13:52:05;17.10;;;9.75;;
3587;SDS011;1808;53.596;9.972;2023-06-19T13:54:34;15.10;;;9.13;;
3587;SDS011;1808;53.596;9.972;2023-06-19T13:57:00;14.82;;;8.90;;
3587;SDS011;1808;53.596;9.972;2023-06-19T13:59:27;11.93;;;8.80;;
3587;SDS011;1808;53.596;9.972;2023-06-19T14:01:53;16.77;;;9.30;;
3587;SDS011;1808;53.596;9.972;2023-06-19T14:04:20;12.68;;;8.00;;
3587;SDS011;1808;53.596;9.972;2023-06-19T14:06:47;19.40;;;11.10;;
3587;SDS011;1808;53.596;9.972;2023-06-19T14:09:13;13.48;;;9.57;;
3587;SDS011;1808;53.596;9.972;2023-06-19T14:11:41;13.38;;;9.32;;
3587;SDS011;1808;53.596;9.972;2023-06-19T14:14:09;12.63;;;9.85;;
3587;SDS011;1808;53.596;9.972;2023-06-19T14:16:35;11.63;;;8.13;;
3587;SDS011;1808;53.596;9.972;2023-06-19T14:19:01;12.93;;;7.95;;
3587;SDS011;1808;53.596;9.972;2023-06-19T14:21:28;13.18;;;7.93;;
3587;SDS011;1808;53.596;9.972;2023-06-19T14:23:54;14.13;;;8.52;;
3587;SDS011;1808;53.596;9.972;2023-06-19T14:26:21;14.85;;;7.80;;
3587;SDS011;1808;53.596;9.972;2023-06-19T14:28:49;14.18;;;7.72;;
3587;SDS011;1808;53.596;9.972;2023-06-19T14:31:20;9.90;;;7.13;;
3587;SDS011;1808;53.596;9.972;2023-06-19T14:33:46;12.07;;;8.57;;
3587;SDS011;1808;53.596;9.972;2023-06-19T14:36:13;13.82;;;9.18;;
3587;SDS011;1808;53.596;9.972;2023-06-19T14:38:39;12.30;;;8.05;;
3587;SDS011;1808;53.596;9.972;2023-06-19T14:41:06;12.63;;;7.70;;
3587;SDS011;1808;53.596;9.972;2023-06-19T14:43:33;13.43;;;8.15;;
3587;SDS011;1808;53.596;9.972;2023-06-19T14:46:01;11.20;;;7.65;;
3587;SDS011;1808;53.596;9.972;2023-06-19T14:48:29;13.18;;;7.40;;
3587;SDS011;1808;53.596;9.972;2023-06-19T14:50:56;11.30;;;7.78;;
3587;SDS011;1808;53.596;9.972;2023-06-19T14:53:23;11.35;;;9.20;;